createdAt,value
2024-03-12T00:02:32.904Z,58.59
2024-03-12T00:05:09.627Z,58.68
2024-03-12T00:07:40.137Z,58.68
2024-03-12T00:10:16.286Z,58.53
2024-03-12T00:12:49.956Z,58.66
2024-03-12T00:15:22.767Z,58.85
2024-03-12T00:17:55.647Z,58.67
2024-03-12T00:20:31.469Z,58.60
2024-03-12T00:23:03.050Z,59.07
2024-03-12T00:25:33.575Z,58.96
2024-03-12T00:28:07.054Z,59.08
2024-03-12T00:30:42.180Z,59.17
2024-03-12T00:33:13.074Z,59.29
2024-03-12T00:35:47.197Z,59.11
2024-03-12T00:38:19.308Z,59.28
2024-03-12T00:40:51.713Z,59.49
2024-03-12T00:43:22.182Z,59.62
2024-03-12T00:45:54.350Z,59.74
2024-03-12T00:48:26.532Z,59.60
2024-03-12T00:50:57.076Z,59.45
2024-03-12T00:53:27.711Z,59.50
2024-03-12T00:55:59.461Z,59.53
2024-03-12T00:58:29.989Z,59.47
2024-03-12T01:01:00.582Z,59.67
2024-03-12T01:03:31.564Z,59.55
2024-03-12T01:06:02.859Z,59.65
2024-03-12T01:08:34.992Z,59.67
2024-03-12T01:11:06.830Z,59.82
2024-03-12T01:13:35.876Z,59.82
2024-03-12T01:16:07.653Z,59.60
2024-03-12T01:18:37.090Z,59.82
2024-03-12T01:21:09.571Z,59.81
2024-03-12T01:23:41.218Z,59.65
2024-03-12T01:26:11.705Z,59.87
2024-03-12T01:28:42.196Z,60.14
2024-03-12T01:31:12.775Z,60.00
2024-03-12T01:33:43.542Z,60.18
2024-03-12T01:36:21.930Z,60.07
2024-03-12T01:38:55.850Z,60.08
2024-03-12T01:41:27.784Z,60.00
2024-03-12T01:44:00.707Z,59.95
2024-03-12T01:46:35.362Z,59.95
2024-03-12T01:49:06.974Z,59.92
2024-03-12T01:51:38.343Z,59.90
2024-03-12T01:54:10.126Z,59.89
2024-03-12T01:56:41.100Z,59.84
2024-03-12T01:59:13.225Z,59.98
2024-03-12T02:01:43.759Z,60.00
2024-03-12T02:04:16.081Z,60.14
2024-03-12T02:06:47.651Z,60.11
2024-03-12T02:09:20.568Z,60.28
2024-03-12T02:11:52.351Z,59.98
2024-03-12T02:14:22.821Z,60.37
2024-03-12T02:16:53.285Z,60.27
2024-03-12T02:19:24.485Z,60.51
2024-03-12T02:21:54.965Z,60.43
2024-03-12T02:24:25.458Z,60.52
2024-03-12T02:26:55.933Z,60.31
2024-03-12T02:29:26.480Z,60.48
2024-03-12T02:31:57.761Z,60.57
2024-03-12T02:34:30.377Z,60.82
2024-03-12T02:37:03.386Z,60.55
2024-03-12T02:39:34.118Z,60.78
2024-03-12T02:42:04.827Z,60.61
2024-03-12T02:44:35.350Z,60.64
2024-03-12T02:47:05.995Z,60.88
2024-03-12T02:49:36.870Z,60.93
2024-03-12T02:52:07.521Z,60.93
2024-03-12T02:54:38.048Z,60.93
2024-03-12T02:57:10.245Z,60.90
2024-03-12T02:59:40.800Z,60.98
2024-03-12T03:02:13.938Z,60.90
2024-03-12T03:04:44.409Z,61.24
2024-03-12T03:07:18.335Z,61.30
2024-03-12T03:09:48.978Z,61.07
2024-03-12T03:12:19.506Z,61.31
2024-03-12T03:14:50.047Z,61.09
2024-03-12T03:17:21.792Z,61.12
2024-03-12T03:19:52.299Z,61.27
2024-03-12T03:22:22.744Z,61.30
2024-03-12T03:24:53.215Z,61.44
2024-03-12T03:27:23.805Z,61.24
2024-03-12T03:29:58.005Z,61.48
2024-03-12T03:32:29.481Z,61.28
2024-03-12T03:35:00.122Z,61.14
2024-03-12T03:37:34.193Z,61.47
2024-03-12T03:40:11.005Z,61.19
2024-03-12T03:42:43.143Z,61.07
2024-03-12T03:45:12.359Z,61.42
2024-03-12T03:47:42.857Z,61.02
2024-03-12T03:50:13.996Z,61.02
2024-03-12T03:52:45.052Z,61.04
2024-03-12T03:55:15.602Z,61.06
2024-03-12T03:57:46.518Z,61.39
2024-03-12T04:00:18.208Z,61.18
2024-03-12T04:02:49.353Z,61.12
2024-03-12T04:05:20.754Z,61.30
2024-03-12T04:07:51.974Z,61.24
2024-03-12T04:10:23.572Z,61.42
2024-03-12T04:12:57.222Z,61.67
2024-03-12T04:15:30.337Z,61.86
2024-03-12T04:18:01.580Z,61.68
2024-03-12T04:20:32.119Z,61.38
2024-03-12T04:23:03.215Z,61.51
2024-03-12T04:25:33.714Z,61.71
2024-03-12T04:28:04.291Z,61.92
2024-03-12T04:30:35.883Z,62.02
2024-03-12T04:33:07.299Z,61.93
2024-03-12T04:35:37.800Z,62.38
2024-03-12T04:38:09.338Z,61.89
2024-03-12T04:40:39.916Z,62.01
2024-03-12T04:43:10.436Z,61.99
2024-03-12T04:45:42.140Z,62.01
2024-03-12T04:48:12.955Z,62.21
2024-03-12T04:50:43.463Z,62.42
2024-03-12T04:53:13.909Z,62.58
2024-03-12T04:55:44.407Z,62.69
2024-03-12T04:58:14.917Z,62.62
2024-03-12T05:00:45.508Z,62.83
2024-03-12T05:03:15.998Z,62.67
2024-03-12T05:05:46.506Z,62.76
2024-03-12T05:08:17.073Z,62.76
2024-03-12T05:10:47.623Z,63.09
2024-03-12T05:13:18.642Z,62.96
2024-03-12T05:15:49.250Z,62.96
2024-03-12T05:18:19.774Z,63.22
2024-03-12T05:20:52.321Z,63.35
2024-03-12T05:23:24.518Z,63.28
2024-03-12T05:25:54.861Z,63.34
2024-03-12T05:28:25.636Z,63.35
2024-03-12T05:30:57.872Z,63.51
2024-03-12T05:33:31.117Z,63.53
2024-03-12T05:36:10.703Z,63.40
2024-03-12T05:38:56.558Z,63.61
2024-03-12T05:41:29.667Z,63.80
2024-03-12T05:44:17.534Z,63.60
2024-03-12T05:47:05.962Z,63.77
2024-03-12T05:49:36.804Z,63.55
2024-03-12T05:52:07.521Z,63.69
2024-03-12T05:54:38.121Z,63.87
2024-03-12T05:57:08.716Z,63.72
2024-03-12T05:59:39.208Z,63.76
2024-03-12T06:02:09.982Z,64.14
2024-03-12T06:04:40.688Z,64.05
2024-03-12T06:07:13.697Z,64.24
2024-03-12T06:09:44.500Z,64.18
2024-03-12T06:12:15.059Z,64.11
2024-03-12T06:14:45.508Z,64.28
2024-03-12T06:17:16.074Z,64.14
2024-03-12T06:19:46.543Z,64.17
2024-03-12T06:22:18.307Z,64.52
2024-03-12T06:24:49.418Z,64.22
2024-03-12T06:27:20.421Z,64.44
2024-03-12T06:29:53.204Z,64.20
2024-03-12T06:32:26.259Z,64.29
2024-03-12T06:34:57.824Z,64.49
2024-03-12T06:37:29.066Z,64.26
2024-03-12T06:40:00.151Z,64.29
2024-03-12T06:42:31.510Z,64.38
2024-03-12T06:45:03.618Z,64.37
2024-03-12T06:47:38.266Z,64.36
2024-03-12T06:50:11.399Z,64.16
2024-03-12T06:52:48.147Z,64.33
2024-03-12T06:55:22.644Z,64.40
2024-03-12T06:57:56.380Z,64.32
2024-03-12T07:00:33.621Z,64.32
2024-03-12T07:03:05.080Z,64.53
2024-03-12T07:05:37.740Z,64.42
2024-03-12T07:08:10.744Z,64.38
2024-03-12T07:10:42.162Z,64.42
2024-03-12T07:13:13.963Z,64.24
2024-03-12T07:15:46.459Z,64.27
2024-03-12T07:18:17.133Z,64.03
2024-03-12T07:20:47.608Z,64.23
2024-03-12T07:23:19.134Z,64.12
2024-03-12T07:25:49.657Z,64.17
2024-03-12T07:28:24.325Z,64.06
2024-03-12T07:30:56.397Z,64.11
2024-03-12T07:33:26.950Z,64.34
2024-03-12T07:35:57.430Z,64.09
2024-03-12T07:38:28.893Z,64.05
2024-03-12T07:40:59.435Z,64.12
2024-03-12T07:43:31.364Z,64.10
2024-03-12T07:46:00.421Z,64.24
2024-03-12T07:48:31.000Z,64.02
2024-03-12T07:51:03.254Z,64.04
2024-03-12T07:53:34.693Z,63.93
2024-03-12T07:56:06.342Z,64.02
2024-03-12T07:58:36.869Z,63.92
2024-03-12T08:01:07.603Z,64.02
2024-03-12T08:03:43.287Z,64.06
2024-03-12T08:06:13.858Z,64.18
2024-03-12T08:08:44.363Z,64.27
2024-03-12T08:11:15.163Z,64.22
2024-03-12T08:13:46.383Z,64.23
2024-03-12T08:16:17.517Z,64.38
2024-03-12T08:18:48.113Z,64.32
2024-03-12T08:21:18.747Z,64.33
2024-03-12T08:23:49.256Z,64.33
2024-03-12T08:26:19.740Z,64.41
2024-03-12T08:28:52.398Z,64.45
2024-03-12T08:31:30.901Z,64.46
2024-03-12T08:34:06.325Z,64.72
2024-03-12T08:36:37.010Z,64.60
2024-03-12T08:39:08.179Z,64.50
2024-03-12T08:41:38.638Z,64.74
2024-03-12T08:44:10.697Z,64.69
2024-03-12T08:46:39.675Z,64.82
2024-03-12T08:49:12.128Z,64.92
2024-03-12T08:51:43.152Z,64.74
2024-03-12T08:54:15.185Z,64.65
2024-03-12T08:56:46.765Z,64.73
2024-03-12T08:59:17.225Z,64.80
2024-03-12T09:01:48.124Z,64.92
2024-03-12T09:04:20.088Z,64.87
2024-03-12T09:06:50.621Z,64.92
2024-03-12T09:09:23.300Z,64.76
2024-03-12T09:11:55.262Z,64.85
2024-03-12T09:14:26.012Z,64.88
2024-03-12T09:16:56.495Z,64.83
2024-03-12T09:19:26.951Z,64.73
2024-03-12T09:22:00.112Z,65.00
2024-03-12T09:24:32.105Z,64.75
2024-03-12T09:27:02.558Z,64.77
2024-03-12T09:29:33.064Z,64.80
2024-03-12T09:32:04.993Z,64.51
2024-03-12T09:34:37.986Z,64.87
2024-03-12T09:37:10.388Z,64.97
2024-03-12T09:39:42.877Z,65.04
2024-03-12T09:42:18.819Z,65.12
2024-03-12T09:44:53.202Z,65.02
2024-03-12T09:47:24.211Z,64.95
2024-03-12T09:49:55.637Z,65.02
2024-03-12T09:52:27.090Z,65.05
2024-03-12T09:54:58.364Z,65.32
2024-03-12T09:57:29.412Z,65.27
2024-03-12T10:00:00.142Z,65.17
2024-03-12T10:02:30.686Z,65.15
2024-03-12T10:05:02.196Z,65.01
2024-03-12T10:07:32.699Z,65.21
2024-03-12T10:10:03.523Z,65.25
2024-03-12T10:12:36.725Z,65.00
2024-03-12T10:15:12.271Z,64.86
2024-03-12T10:17:42.808Z,65.21
2024-03-12T10:20:17.356Z,65.05
2024-03-12T10:22:48.026Z,65.00
2024-03-12T10:25:19.038Z,64.98
2024-03-12T10:28:06.512Z,64.89
2024-03-12T10:30:38.913Z,64.94
2024-03-12T10:33:18.195Z,64.99
2024-03-12T10:35:51.817Z,65.00
2024-03-12T10:38:33.084Z,65.18
2024-03-12T10:41:17.818Z,65.20
2024-03-12T10:43:50.776Z,65.22
2024-03-12T10:46:22.495Z,65.22
2024-03-12T10:48:54.211Z,65.36
2024-03-12T10:51:25.348Z,65.40
2024-03-12T10:53:56.195Z,65.42
2024-03-12T10:56:26.768Z,65.36
2024-03-12T10:58:57.869Z,65.52
2024-03-12T11:01:29.842Z,65.30
2024-03-12T11:04:00.698Z,65.37
2024-03-12T11:06:32.411Z,65.24
2024-03-12T11:09:03.722Z,65.38
2024-03-12T11:11:35.524Z,65.23
2024-03-12T11:14:09.093Z,65.51
2024-03-12T11:16:41.644Z,65.46
2024-03-12T11:19:24.511Z,65.13
2024-03-12T11:21:56.740Z,65.18
2024-03-12T11:24:31.821Z,65.31
2024-03-12T11:27:02.989Z,65.12
2024-03-12T11:30:12.954Z,65.09
2024-03-12T11:32:45.895Z,65.23
2024-03-12T11:35:33.452Z,65.05
2024-03-12T11:38:11.792Z,64.92
2024-03-12T11:40:52.575Z,64.92
2024-03-12T11:43:40.745Z,64.76
2024-03-12T11:46:16.701Z,65.15
2024-03-12T11:48:47.658Z,64.94
2024-03-12T11:51:19.895Z,65.30
2024-03-12T11:53:50.599Z,65.06
2024-03-12T11:56:23.306Z,65.36
2024-03-12T11:59:00.185Z,65.08
2024-03-12T12:01:37.324Z,65.06
2024-03-12T12:04:11.877Z,64.85
2024-03-12T12:06:44.418Z,64.90
2024-03-12T12:09:15.450Z,65.00
2024-03-12T12:11:46.082Z,65.17
2024-03-12T12:14:17.575Z,64.94
2024-03-12T12:16:51.364Z,65.11
2024-03-12T12:19:31.893Z,64.93
2024-03-12T12:22:06.047Z,65.07
2024-03-12T12:24:38.988Z,64.71
2024-03-12T12:27:09.737Z,64.91
2024-03-12T12:29:41.163Z,64.58
2024-03-12T12:32:12.553Z,64.28
2024-03-12T12:34:43.332Z,64.10
2024-03-12T12:37:15.690Z,64.17
2024-03-12T12:39:53.844Z,63.82
2024-03-12T12:42:25.714Z,63.96
2024-03-12T12:44:57.052Z,63.94
2024-03-12T12:47:27.645Z,63.88
2024-03-12T12:50:00.409Z,64.08
2024-03-12T12:52:31.146Z,64.08
2024-03-12T12:55:02.298Z,63.87
2024-03-12T12:57:41.612Z,63.96
2024-03-12T13:00:24.546Z,63.66
2024-03-12T13:02:55.423Z,63.70
2024-03-12T13:05:26.104Z,63.96
2024-03-12T13:07:56.621Z,63.65
2024-03-12T13:10:28.226Z,63.74
2024-03-12T13:12:58.917Z,63.62
2024-03-12T13:15:35.137Z,63.16
2024-03-12T13:18:06.568Z,63.13
2024-03-12T13:20:37.100Z,63.28
2024-03-12T13:23:09.898Z,63.09
2024-03-12T13:25:40.685Z,62.79
2024-03-12T13:28:11.210Z,62.39
2024-03-12T13:30:41.789Z,62.45
2024-03-12T13:33:12.723Z,62.24
2024-03-12T13:35:44.867Z,62.02
2024-03-12T13:38:15.668Z,61.88
2024-03-12T13:40:46.230Z,62.00
2024-03-12T13:43:17.554Z,61.93
2024-03-12T13:45:49.943Z,61.97
2024-03-12T13:48:20.622Z,61.87
2024-03-12T13:50:51.290Z,62.27
2024-03-12T13:53:21.737Z,61.90
2024-03-12T13:55:54.289Z,62.09
2024-03-12T13:58:25.750Z,62.02
2024-03-12T14:00:59.065Z,61.99
2024-03-12T14:03:31.912Z,61.91
2024-03-12T14:06:03.870Z,61.77
2024-03-12T14:08:34.386Z,61.41
2024-03-12T14:11:05.163Z,61.33
2024-03-12T14:13:36.158Z,61.33
2024-03-12T14:16:10.192Z,61.01
2024-03-12T14:18:40.721Z,60.87
2024-03-12T14:21:14.147Z,61.06
2024-03-12T14:23:44.623Z,60.90
2024-03-12T14:26:19.292Z,61.05
2024-03-12T14:28:50.006Z,60.68
2024-03-12T14:31:20.604Z,60.53
2024-03-12T14:33:51.103Z,60.46
2024-03-12T14:36:21.571Z,60.41
2024-03-12T14:38:54.819Z,60.31
2024-03-12T14:41:27.457Z,59.96
2024-03-12T14:43:58.340Z,60.17
2024-03-12T14:46:30.941Z,60.45
2024-03-12T14:49:01.579Z,60.57
2024-03-12T14:51:33.750Z,60.73
2024-03-12T14:54:04.482Z,61.05
2024-03-12T14:56:34.943Z,61.16
2024-03-12T14:59:06.945Z,61.04
2024-03-12T15:01:36.060Z,61.36
2024-03-12T15:04:08.071Z,61.20
2024-03-12T15:06:40.880Z,61.47
2024-03-12T15:09:15.141Z,61.45
2024-03-12T15:11:47.812Z,61.35
2024-03-12T15:14:18.546Z,61.29
2024-03-12T15:16:51.930Z,61.20
2024-03-12T15:19:22.408Z,61.14
2024-03-12T15:21:53.303Z,60.87
2024-03-12T15:24:23.853Z,61.28
2024-03-12T15:26:56.600Z,61.11
2024-03-12T15:29:29.416Z,61.04
2024-03-12T15:31:59.974Z,60.99
2024-03-12T15:34:30.454Z,60.92
2024-03-12T15:37:01.009Z,61.10
2024-03-12T15:39:31.931Z,60.78
2024-03-12T15:42:02.416Z,60.81
2024-03-12T15:44:33.428Z,60.85
2024-03-12T15:47:03.900Z,61.09
2024-03-12T15:49:35.083Z,61.07
2024-03-12T15:52:06.008Z,61.14
2024-03-12T15:54:38.637Z,61.15
2024-03-12T15:57:11.154Z,61.56
2024-03-12T15:59:40.134Z,61.56
2024-03-12T16:02:10.886Z,61.74
2024-03-12T16:04:41.418Z,61.49
2024-03-12T16:07:11.968Z,61.40
2024-03-12T16:09:42.752Z,61.24
2024-03-12T16:12:14.594Z,61.15
2024-03-12T16:14:44.200Z,61.11
2024-03-12T16:17:14.676Z,61.07
2024-03-12T16:19:45.143Z,60.96
2024-03-12T16:22:15.802Z,60.76
2024-03-12T16:24:46.456Z,61.04
2024-03-12T16:27:16.972Z,61.03
2024-03-12T16:29:47.884Z,61.07
2024-03-12T16:32:18.414Z,60.97
2024-03-12T16:34:48.894Z,60.89
2024-03-12T16:37:19.589Z,60.79
2024-03-12T16:39:50.684Z,60.84
2024-03-12T16:42:22.148Z,60.76
2024-03-12T16:44:53.611Z,60.71
2024-03-12T16:47:24.198Z,60.82
2024-03-12T16:49:54.682Z,61.00
2024-03-12T16:52:25.319Z,61.09
2024-03-12T16:54:56.868Z,61.00
2024-03-12T16:57:28.802Z,61.15
2024-03-12T17:00:01.915Z,61.04
2024-03-12T17:02:41.609Z,61.00
2024-03-12T17:05:15.957Z,61.19
2024-03-12T17:07:50.453Z,61.13
2024-03-12T17:10:23.766Z,61.16
2024-03-12T17:12:55.775Z,61.18
2024-03-12T17:15:27.191Z,60.98
2024-03-12T17:17:59.020Z,61.16
2024-03-12T17:20:33.066Z,61.08
2024-03-12T17:23:05.678Z,60.87
2024-03-12T17:25:38.935Z,61.25
2024-03-12T17:28:11.482Z,61.28
2024-03-12T17:30:42.953Z,61.40
2024-03-12T17:33:14.737Z,61.42
2024-03-12T17:35:46.139Z,61.39
2024-03-12T17:38:18.350Z,61.43
2024-03-12T17:40:54.312Z,61.73
2024-03-12T17:43:27.695Z,61.45
2024-03-12T17:45:59.416Z,61.61
2024-03-12T17:48:36.167Z,61.55
2024-03-12T17:51:08.062Z,61.58
2024-03-12T17:53:39.813Z,61.75
2024-03-12T17:56:13.988Z,61.83
2024-03-12T17:58:48.414Z,61.68
2024-03-12T18:01:22.101Z,61.93
2024-03-12T18:03:53.592Z,62.03
2024-03-12T18:06:29.237Z,62.16
2024-03-12T18:09:02.656Z,62.10
2024-03-12T18:11:34.059Z,61.89
2024-03-12T18:14:07.620Z,61.93
2024-03-12T18:16:38.974Z,61.94
2024-03-12T18:19:10.048Z,62.05
2024-03-12T18:21:40.779Z,62.19
2024-03-12T18:24:11.560Z,62.00
2024-03-12T18:26:43.950Z,62.21
2024-03-12T18:29:14.636Z,61.96
2024-03-12T18:31:45.358Z,62.01
2024-03-12T18:34:18.549Z,62.19
2024-03-12T18:36:54.759Z,62.14
2024-03-12T18:39:25.671Z,62.01
2024-03-12T18:41:56.580Z,62.02
2024-03-12T18:44:28.068Z,62.20
2024-03-12T18:46:58.636Z,62.16
2024-03-12T18:49:29.681Z,62.03
2024-03-12T18:52:01.660Z,62.11
2024-03-12T18:54:33.384Z,62.38
2024-03-12T18:57:04.837Z,62.40
2024-03-12T18:59:36.722Z,62.29
2024-03-12T19:02:07.825Z,62.53
2024-03-12T19:04:39.262Z,62.14
2024-03-12T19:07:11.956Z,62.38
2024-03-12T19:09:43.516Z,62.47
2024-03-12T19:12:16.675Z,62.40
2024-03-12T19:14:49.317Z,62.41
2024-03-12T19:17:21.216Z,62.27
2024-03-12T19:19:50.509Z,62.43
2024-03-12T19:22:22.141Z,62.47
2024-03-12T19:24:52.802Z,62.55
2024-03-12T19:27:30.861Z,62.59
2024-03-12T19:30:06.687Z,62.90
2024-03-12T19:32:38.664Z,62.68
2024-03-12T19:35:09.036Z,62.78
2024-03-12T19:37:40.731Z,62.80
2024-03-12T19:40:13.725Z,62.78
2024-03-12T19:42:46.779Z,62.98
2024-03-12T19:45:20.083Z,63.02
2024-03-12T19:47:52.591Z,63.19
2024-03-12T19:50:27.006Z,63.30
2024-03-12T19:52:58.169Z,63.46
2024-03-12T19:55:30.578Z,63.28
2024-03-12T19:58:02.418Z,63.41
2024-03-12T20:00:35.012Z,63.12
2024-03-12T20:03:07.439Z,63.07
2024-03-12T20:05:37.985Z,62.96
2024-03-12T20:08:10.453Z,63.09
2024-03-12T20:10:41.971Z,63.10
2024-03-12T20:13:12.630Z,63.33
2024-03-12T20:15:46.524Z,63.06
2024-03-12T20:18:17.460Z,63.19
2024-03-12T20:20:48.026Z,62.93
2024-03-12T20:23:18.569Z,62.83
2024-03-12T20:25:49.216Z,63.01
2024-03-12T20:28:19.999Z,63.02
2024-03-12T20:30:52.459Z,62.92
2024-03-12T20:33:25.635Z,62.79
2024-03-12T20:35:58.961Z,63.01
2024-03-12T20:38:30.116Z,63.01
2024-03-12T20:41:00.748Z,62.99
2024-03-12T20:43:31.305Z,62.85
2024-03-12T20:46:02.170Z,62.59
2024-03-12T20:48:33.720Z,62.88
2024-03-12T20:51:05.689Z,62.82
2024-03-12T20:53:35.088Z,62.92
2024-03-12T20:56:06.385Z,62.77
2024-03-12T20:58:36.901Z,62.79
2024-03-12T21:01:09.997Z,62.79
2024-03-12T21:03:40.928Z,62.91
2024-03-12T21:06:13.512Z,62.79
2024-03-12T21:08:46.954Z,62.76
2024-03-12T21:11:17.474Z,62.95
2024-03-12T21:13:48.003Z,63.13
2024-03-12T21:16:19.029Z,63.15
2024-03-12T21:18:49.626Z,63.07
2024-03-12T21:21:20.167Z,62.92
2024-03-12T21:23:50.608Z,62.26
2024-03-12T21:26:24.690Z,61.33
2024-03-12T21:28:55.199Z,60.72
2024-03-12T21:31:25.746Z,60.56
2024-03-12T21:33:56.353Z,60.47
2024-03-12T21:36:26.847Z,60.73
2024-03-12T21:38:58.846Z,60.71
2024-03-12T21:41:27.902Z,60.56
2024-03-12T21:43:58.458Z,60.49
2024-03-12T21:46:28.980Z,60.45
2024-03-12T21:48:59.537Z,60.21
2024-03-12T21:51:31.012Z,59.97
2024-03-12T21:54:01.477Z,59.99
2024-03-12T21:56:32.260Z,59.93
2024-03-12T21:59:02.761Z,59.86
2024-03-12T22:01:33.339Z,59.47
2024-03-12T22:04:04.345Z,59.26
2024-03-12T22:06:34.866Z,59.46
2024-03-12T22:09:05.419Z,58.83
2024-03-12T22:11:35.956Z,58.83
2024-03-12T22:14:06.515Z,58.86
2024-03-12T22:16:39.335Z,58.54
2024-03-12T22:19:10.014Z,58.55
2024-03-12T22:21:45.533Z,58.30
2024-03-12T22:24:23.227Z,58.38
2024-03-12T22:26:54.688Z,58.35
2024-03-12T22:29:25.372Z,58.41
2024-03-12T22:31:55.989Z,58.22
2024-03-12T22:34:26.514Z,58.26
2024-03-12T22:36:57.316Z,58.18
2024-03-12T22:39:28.893Z,58.14
2024-03-12T22:42:00.344Z,58.33
2024-03-12T22:44:31.849Z,58.21
2024-03-12T22:47:08.125Z,58.27
2024-03-12T22:49:44.248Z,58.28
2024-03-12T22:52:15.508Z,58.23
2024-03-12T22:54:46.514Z,58.38
2024-03-12T22:57:17.884Z,58.13
2024-03-12T22:59:52.575Z,58.19
2024-03-12T23:02:24.697Z,58.37
2024-03-12T23:04:55.715Z,58.52
2024-03-12T23:07:28.441Z,58.39
2024-03-12T23:10:00.058Z,58.09
2024-03-12T23:12:30.590Z,58.16
2024-03-12T23:15:02.115Z,58.03
2024-03-12T23:17:32.865Z,58.17
2024-03-12T23:20:03.395Z,58.03
2024-03-12T23:22:34.109Z,58.33
2024-03-12T23:25:07.002Z,58.40
2024-03-12T23:27:38.542Z,58.23
2024-03-12T23:30:13.923Z,58.09
2024-03-12T23:32:44.982Z,58.36
2024-03-12T23:35:15.635Z,58.18
2024-03-12T23:37:46.180Z,58.21
2024-03-12T23:40:17.095Z,58.27
2024-03-12T23:42:48.108Z,58.25
2024-03-12T23:45:19.781Z,58.62
2024-03-12T23:47:51.205Z,58.43
2024-03-12T23:50:22.068Z,58.30
2024-03-12T23:52:52.556Z,58.13
2024-03-12T23:55:23.191Z,57.98
2024-03-12T23:57:55.579Z,58.06
